San Juan Capistrano, California
Current Conditions -  °F | °C
As of 1:53 AM on Tuesday 21 Oct 2014 (Local Time) from KSNA Reporting Station
Clear Clear  
Wind Chill: 67°   Ceiling: Unl
Heat Index: 67°   Visibility: 10mi
Dew Point: 60°   Wind: 3mph
Humidity: 79%   Direction: 110°ESE
Pressure: 29.9"   Gusts: NA
Location:  33.5°N, 117.66°W
Report Text: KSNA 210853Z AUTO 11003KT 10SM CLR 19/16 A2990 RMK AO2 SLP125 T01940156 58001 TSNO
Loading
Personal Weather Stations






























Interactive Weather Map
Tropical Storm Tracking
New forecast layout! Learn more

10-Day Weather Forecast

Advertisements
Track Severe Weather on mobile